sensor_id;sensor_type;location;lat;lon;timestamp;pressure;altitude;pressure_sealevel;temperature;humidity
9899;BME280;4988;49.238;6.698;2022-09-09T00:00:28;98650.19;;;15.80;100.00
9899;BME280;4988;49.238;6.698;2022-09-09T00:03:04;98641.50;;;15.76;100.00
9899;BME280;4988;49.238;6.698;2022-09-09T00:05:54;98636.63;;;15.70;100.00
9899;BME280;4988;49.238;6.698;2022-09-09T00:08:38;98642.09;;;15.69;100.00
9899;BME280;4988;49.238;6.698;2022-09-09T00:11:09;98633.88;;;15.59;100.00
9899;BME280;4988;49.238;6.698;2022-09-09T00:13:46;98635.94;;;15.55;100.00
9899;BME280;4988;49.238;6.698;2022-09-09T00:16:16;98631.91;;;15.50;100.00
9899;BME280;4988;49.238;6.698;2022-09-09T00:21:23;98618.25;;;15.53;100.00
9899;BME280;4988;49.238;6.698;2022-09-09T00:23:51;98617.63;;;15.49;100.00
9899;BME280;4988;49.238;6.698;2022-09-09T00:26:45;98607.97;;;15.47;100.00
9899;BME280;4988;49.238;6.698;2022-09-09T00:31:37;98608.44;;;15.40;100.00
9899;BME280;4988;49.238;6.698;2022-09-09T00:34:23;98610.84;;;15.32;100.00
9899;BME280;4988;49.238;6.698;2022-09-09T00:36:52;98615.47;;;15.30;100.00
9899;BME280;4988;49.238;6.698;2022-09-09T00:39:30;98617.91;;;15.33;100.00
9899;BME280;4988;49.238;6.698;2022-09-09T00:42:19;98617.59;;;15.38;100.00
9899;BME280;4988;49.238;6.698;2022-09-09T00:44:56;98618.22;;;15.41;100.00
9899;BME280;4988;49.238;6.698;2022-09-09T00:47:39;98612.78;;;15.30;100.00
9899;BME280;4988;49.238;6.698;2022-09-09T00:50:35;98616.75;;;15.37;100.00
9899;BME280;4988;49.238;6.698;2022-09-09T00:56:14;98635.38;;;15.39;100.00
9899;BME280;4988;49.238;6.698;2022-09-09T01:01:24;98638.97;;;15.51;100.00
9899;BME280;4988;49.238;6.698;2022-09-09T01:03:52;98637.66;;;15.56;100.00
9899;BME280;4988;49.238;6.698;2022-09-09T01:06:32;98639.38;;;15.57;100.00
9899;BME280;4988;49.238;6.698;2022-09-09T01:20:15;98631.44;;;15.56;100.00
9899;BME280;4988;49.238;6.698;2022-09-09T01:22:47;98628.78;;;15.56;100.00
9899;BME280;4988;49.238;6.698;2022-09-09T01:27:50;98634.63;;;15.61;100.00
9899;BME280;4988;49.238;6.698;2022-09-09T01:30:18;98642.28;;;15.54;100.00
9899;BME280;4988;49.238;6.698;2022-09-09T01:32:45;98638.91;;;15.64;100.00
9899;BME280;4988;49.238;6.698;2022-09-09T01:35:19;98639.13;;;15.60;100.00
9899;BME280;4988;49.238;6.698;2022-09-09T01:37:51;98630.81;;;15.52;100.00
9899;BME280;4988;49.238;6.698;2022-09-09T01:40:17;98631.03;;;15.49;100.00
9899;BME280;4988;49.238;6.698;2022-09-09T01:42:42;98635.09;;;15.55;100.00
9899;BME280;4988;49.238;6.698;2022-09-09T01:45:08;98639.03;;;15.62;100.00
9899;BME280;4988;49.238;6.698;2022-09-09T01:47:34;98647.19;;;15.60;100.00
9899;BME280;4988;49.238;6.698;2022-09-09T01:50:01;98647.31;;;15.59;100.00
9899;BME280;4988;49.238;6.698;2022-09-09T01:52:27;98648.00;;;15.50;100.00
9899;BME280;4988;49.238;6.698;2022-09-09T01:54:53;98640.94;;;15.49;100.00
9899;BME280;4988;49.238;6.698;2022-09-09T01:57:24;98638.47;;;15.46;100.00
9899;BME280;4988;49.238;6.698;2022-09-09T02:00:10;98625.50;;;15.39;100.00
9899;BME280;4988;49.238;6.698;2022-09-09T02:03:15;98617.34;;;15.41;100.00
9899;BME280;4988;49.238;6.698;2022-09-09T02:05:51;98625.50;;;15.39;100.00
9899;BME280;4988;49.238;6.698;2022-09-09T02:08:40;98630.25;;;15.36;100.00
9899;BME280;4988;49.238;6.698;2022-09-09T02:11:14;98631.19;;;15.35;100.00
9899;BME280;4988;49.238;6.698;2022-09-09T02:13:40;98627.91;;;15.31;100.00
9899;BME280;4988;49.238;6.698;2022-09-09T02:16:12;98625.97;;;15.33;100.00
9899;BME280;4988;49.238;6.698;2022-09-09T02:18:44;98627.69;;;15.34;100.00
9899;BME280;4988;49.238;6.698;2022-09-09T02:21:13;98620.84;;;15.30;100.00
9899;BME280;4988;49.238;6.698;2022-09-09T02:23:42;98617.78;;;15.35;100.00
9899;BME280;4988;49.238;6.698;2022-09-09T02:26:10;98618.34;;;15.40;100.00
9899;BME280;4988;49.238;6.698;2022-09-09T02:28:39;98615.97;;;15.35;100.00
9899;BME280;4988;49.238;6.698;2022-09-09T02:31:06;98619.94;;;15.42;100.00
9899;BME280;4988;49.238;6.698;2022-09-09T02:33:39;98615.97;;;15.35;100.00
9899;BME280;4988;49.238;6.698;2022-09-09T02:36:08;98635.91;;;15.44;100.00
9899;BME280;4988;49.238;6.698;2022-09-09T02:38:38;98629.56;;;15.45;100.00
9899;BME280;4988;49.238;6.698;2022-09-09T02:41:06;98638.19;;;15.37;100.00
9899;BME280;4988;49.238;6.698;2022-09-09T02:43:34;98631.13;;;15.36;100.00
9899;BME280;4988;49.238;6.698;2022-09-09T02:48:41;98620.31;;;15.25;100.00
9899;BME280;4988;49.238;6.698;2022-09-09T02:51:24;98626.75;;;15.22;100.00
9899;BME280;4988;49.238;6.698;2022-09-09T02:54:01;98624.94;;;15.23;100.00
9899;BME280;4988;49.238;6.698;2022-09-09T02:56:31;98618.81;;;15.21;100.00
9899;BME280;4988;49.238;6.698;2022-09-09T02:58:58;98627.31;;;15.15;100.00
9899;BME280;4988;49.238;6.698;2022-09-09T03:01:24;98621.19;;;15.12;100.00
9899;BME280;4988;49.238;6.698;2022-09-09T03:03:50;98626.69;;;15.11;100.00
9899;BME280;4988;49.238;6.698;2022-09-09T03:06:15;98624.56;;;15.03;100.00
9899;BME280;4988;49.238;6.698;2022-09-09T03:08:40;98629.41;;;14.98;100.00
9899;BME280;4988;49.238;6.698;2022-09-09T03:11:07;98628.22;;;15.02;100.00
9899;BME280;4988;49.238;6.698;2022-09-09T03:13:32;98623.63;;;15.04;100.00
9899;BME280;4988;49.238;6.698;2022-09-09T03:15:57;98627.91;;;14.94;100.00
9899;BME280;4988;49.238;6.698;2022-09-09T03:18:23;98637.16;;;14.90;100.00
9899;BME280;4988;49.238;6.698;2022-09-09T03:20:48;98635.56;;;14.87;100.00
9899;BME280;4988;49.238;6.698;2022-09-09T03:23:14;98638.22;;;14.87;100.00
9899;BME280;4988;49.238;6.698;2022-09-09T03:25:46;98637.34;;;14.87;100.00
9899;BME280;4988;49.238;6.698;2022-09-09T03:28:11;98632.75;;;14.89;100.00
9899;BME280;4988;49.238;6.698;2022-09-09T03:30:36;98638.88;;;14.91;100.00
9899;BME280;4988;49.238;6.698;2022-09-09T03:33:02;98641.34;;;14.81;100.00
9899;BME280;4988;49.238;6.698;2022-09-09T03:35:28;98636.00;;;14.81;100.00
9899;BME280;4988;49.238;6.698;2022-09-09T03:37:54;98634.28;;;14.80;100.00
9899;BME280;4988;49.238;6.698;2022-09-09T03:40:21;98636.31;;;14.76;100.00
9899;BME280;4988;49.238;6.698;2022-09-09T03:42:46;98631.19;;;14.73;100.00
9899;BME280;4988;49.238;6.698;2022-09-09T03:45:11;98629.69;;;14.69;100.00
9899;BME280;4988;49.238;6.698;2022-09-09T03:47:37;98640.06;;;14.74;100.00
9899;BME280;4988;49.238;6.698;2022-09-09T03:50:03;98634.59;;;14.75;100.00
9899;BME280;4988;49.238;6.698;2022-09-09T03:52:29;98639.53;;;14.82;100.00
9899;BME280;4988;49.238;6.698;2022-09-09T03:54:55;98635.13;;;14.80;100.00
9899;BME280;4988;49.238;6.698;2022-09-09T03:57:22;98635.13;;;14.80;100.00
9899;BME280;4988;49.238;6.698;2022-09-09T03:59:47;98629.88;;;14.79;100.00
9899;BME280;4988;49.238;6.698;2022-09-09T04:02:12;98645.22;;;14.77;100.00
9899;BME280;4988;49.238;6.698;2022-09-09T04:04:38;98646.50;;;14.71;100.00
9899;BME280;4988;49.238;6.698;2022-09-09T04:07:03;98645.03;;;14.67;100.00
9899;BME280;4988;49.238;6.698;2022-09-09T04:09:31;98642.88;;;14.72;100.00
9899;BME280;4988;49.238;6.698;2022-09-09T04:11:56;98648.97;;;14.74;100.00
9899;BME280;4988;49.238;6.698;2022-09-09T04:14:21;98636.19;;;14.78;100.00
9899;BME280;4988;49.238;6.698;2022-09-09T04:16:47;98637.41;;;14.74;100.00
9899;BME280;4988;49.238;6.698;2022-09-09T04:19:13;98642.97;;;14.71;100.00
9899;BME280;4988;49.238;6.698;2022-09-09T04:21:40;98645.22;;;14.77;100.00
9899;BME280;4988;49.238;6.698;2022-09-09T04:24:07;98643.41;;;14.77;100.00
9899;BME280;4988;49.238;6.698;2022-09-09T04:26:33;98649.06;;;14.86;100.00
9899;BME280;4988;49.238;6.698;2022-09-09T04:28:58;98648.31;;;14.84;100.00
9899;BME280;4988;49.238;6.698;2022-09-09T04:31:24;98651.19;;;14.80;100.00
9899;BME280;4988;49.238;6.698;2022-09-09T04:33:51;98648.00;;;14.88;100.00
9899;BME280;4988;49.238;6.698;2022-09-09T04:36:17;98641.09;;;14.97;100.00
9899;BME280;4988;49.238;6.698;2022-09-09T04:38:44;98642.41;;;14.91;100.00
9899;BME280;4988;49.238;6.698;2022-09-09T04:41:09;98644.66;;;14.85;100.00
9899;BME280;4988;49.238;6.698;2022-09-09T04:43:36;98648.53;;;14.80;100.00
9899;BME280;4988;49.238;6.698;2022-09-09T04:46:02;98644.88;;;14.82;100.00
9899;BME280;4988;49.238;6.698;2022-09-09T04:48:28;98651.84;;;14.84;100.00
9899;BME280;4988;49.238;6.698;2022-09-09T04:50:57;98651.00;;;14.84;100.00
9899;BME280;4988;49.238;6.698;2022-09-09T04:53:23;98656.34;;;14.84;100.00
9899;BME280;4988;49.238;6.698;2022-09-09T04:55:51;98657.31;;;14.83;100.00
9899;BME280;4988;49.238;6.698;2022-09-09T04:58:16;98661.28;;;14.90;100.00
9899;BME280;4988;49.238;6.698;2022-09-09T05:00:42;98666.44;;;14.93;100.00
9899;BME280;4988;49.238;6.698;2022-09-09T05:03:07;98659.56;;;14.89;100.00
9899;BME280;4988;49.238;6.698;2022-09-09T05:05:34;98667.59;;;14.89;100.00
9899;BME280;4988;49.238;6.698;2022-09-09T05:08:05;98664.06;;;14.88;100.00
9899;BME280;4988;49.238;6.698;2022-09-09T05:10:31;98660.63;;;14.86;100.00
9899;BME280;4988;49.238;6.698;2022-09-09T05:12:57;98665.34;;;14.95;100.00
9899;BME280;4988;49.238;6.698;2022-09-09T05:15:22;98658.25;;;14.94;100.00
9899;BME280;4988;49.238;6.698;2022-09-09T05:17:48;98663.75;;;14.93;100.00
9899;BME280;4988;49.238;6.698;2022-09-09T05:20:13;98660.72;;;14.98;100.00
9899;BME280;4988;49.238;6.698;2022-09-09T05:22:38;98660.84;;;14.96;100.00
9899;BME280;4988;49.238;6.698;2022-09-09T05:25:04;98653.75;;;14.95;100.00
9899;BME280;4988;49.238;6.698;2022-09-09T05:27:29;98655.47;;;14.96;100.00
9899;BME280;4988;49.238;6.698;2022-09-09T05:29:56;98662.75;;;14.94;100.00
9899;BME280;4988;49.238;6.698;2022-09-09T05:32:22;98657.31;;;14.95;100.00
9899;BME280;4988;49.238;6.698;2022-09-09T05:34:48;98659.88;;;14.97;100.00
9899;BME280;4988;49.238;6.698;2022-09-09T05:37:13;98661.03;;;15.06;100.00
9899;BME280;4988;49.238;6.698;2022-09-09T05:39:38;98664.84;;;15.15;100.00
9899;BME280;4988;49.238;6.698;2022-09-09T05:42:04;98658.00;;;15.10;100.00
9899;BME280;4988;49.238;6.698;2022-09-09T05:44:30;98668.94;;;15.20;100.00
9899;BME280;4988;49.238;6.698;2022-09-09T05:46:55;98665.69;;;15.28;100.00
9899;BME280;4988;49.238;6.698;2022-09-09T05:49:23;98671.66;;;15.32;100.00
9899;BME280;4988;49.238;6.698;2022-09-09T05:51:48;98671.44;;;15.35;100.00
9899;BME280;4988;49.238;6.698;2022-09-09T05:54:15;98673.44;;;15.44;100.00
9899;BME280;4988;49.238;6.698;2022-09-09T05:56:41;98669.69;;;15.47;100.00
9899;BME280;4988;49.238;6.698;2022-09-09T05:59:07;98675.88;;;15.47;100.00
9899;BME280;4988;49.238;6.698;2022-09-09T06:01:35;98668.38;;;15.52;100.00
9899;BME280;4988;49.238;6.698;2022-09-09T06:04:01;98676.53;;;15.51;100.00
9899;BME280;4988;49.238;6.698;2022-09-09T06:06:31;98678.25;;;15.52;100.00
9899;BME280;4988;49.238;6.698;2022-09-09T06:08:57;98670.69;;;15.57;100.00
9899;BME280;4988;49.238;6.698;2022-09-09T06:11:27;98673.47;;;15.68;100.00
9899;BME280;4988;49.238;6.698;2022-09-09T06:13:56;98680.97;;;15.63;100.00
9899;BME280;4988;49.238;6.698;2022-09-09T06:16:23;98684.88;;;15.59;100.00
9899;BME280;4988;49.238;6.698;2022-09-09T06:18:49;98679.97;;;15.53;100.00
9899;BME280;4988;49.238;6.698;2022-09-09T06:21:18;98674.00;;;15.60;100.00
9899;BME280;4988;49.238;6.698;2022-09-09T06:23:43;98680.25;;;15.61;100.00
9899;BME280;4988;49.238;6.698;2022-09-09T06:26:18;98678.53;;;15.60;100.00
9899;BME280;4988;49.238;6.698;2022-09-09T06:28:45;98683.91;;;15.60;100.00
9899;BME280;4988;49.238;6.698;2022-09-09T06:31:12;98682.94;;;15.61;100.00
9899;BME280;4988;49.238;6.698;2022-09-09T06:33:41;98684.19;;;15.68;100.00
9899;BME280;4988;49.238;6.698;2022-09-09T06:36:10;98691.50;;;15.66;100.00
9899;BME280;4988;49.238;6.698;2022-09-09T06:38:36;98689.72;;;15.78;100.00
9899;BME280;4988;49.238;6.698;2022-09-09T06:41:01;98687.97;;;15.90;100.00
9899;BME280;4988;49.238;6.698;2022-09-09T06:43:28;98687.69;;;15.82;100.00
9899;BME280;4988;49.238;6.698;2022-09-09T06:48:20;98687.28;;;15.99;100.00
9899;BME280;4988;49.238;6.698;2022-09-09T06:50:45;98692.88;;;15.96;100.00
9899;BME280;4988;49.238;6.698;2022-09-09T06:53:11;98689.69;;;15.91;100.00
9899;BME280;4988;49.238;6.698;2022-09-09T06:55:36;98688.84;;;15.90;100.00
9899;BME280;4988;49.238;6.698;2022-09-09T06:58:01;98692.38;;;15.91;100.00
9899;BME280;4988;49.238;6.698;2022-09-09T07:00:27;98691.69;;;16.00;100.00
9899;BME280;4988;49.238;6.698;2022-09-09T07:02:53;98695.84;;;16.04;100.00
9899;BME280;4988;49.238;6.698;2022-09-09T07:05:18;98694.53;;;16.10;100.00
9899;BME280;4988;49.238;6.698;2022-09-09T07:07:44;98701.94;;;16.06;100.00
9899;BME280;4988;49.238;6.698;2022-09-09T07:10:09;98700.25;;;16.05;100.00
9899;BME280;4988;49.238;6.698;2022-09-09T07:12:35;98708.66;;;16.12;100.00
9899;BME280;4988;49.238;6.698;2022-09-09T07:15:00;98699.53;;;16.15;100.00
9899;BME280;4988;49.238;6.698;2022-09-09T07:17:26;98698.22;;;16.20;100.00
9899;BME280;4988;49.238;6.698;2022-09-09T07:19:53;98706.41;;;16.30;100.00
9899;BME280;4988;49.238;6.698;2022-09-09T07:22:18;98701.56;;;16.47;98.57
9899;BME280;4988;49.238;6.698;2022-09-09T07:24:44;98704.63;;;16.53;97.09
9899;BME280;4988;49.238;6.698;2022-09-09T07:27:10;98711.59;;;16.56;96.55
9899;BME280;4988;49.238;6.698;2022-09-09T07:29:35;98707.81;;;16.70;96.77
9899;BME280;4988;49.238;6.698;2022-09-09T07:32:00;98702.31;;;16.60;95.74
9899;BME280;4988;49.238;6.698;2022-09-09T07:34:27;98706.72;;;16.61;96.73
9899;BME280;4988;49.238;6.698;2022-09-09T07:36:52;98712.34;;;16.58;96.47
9899;BME280;4988;49.238;6.698;2022-09-09T07:39:18;98712.56;;;16.55;95.16
9899;BME280;4988;49.238;6.698;2022-09-09T07:41:45;98710.38;;;16.60;95.25
9899;BME280;4988;49.238;6.698;2022-09-09T07:44:15;98710.38;;;16.60;95.63
9899;BME280;4988;49.238;6.698;2022-09-09T07:46:41;98712.34;;;16.69;95.73
9899;BME280;4988;49.238;6.698;2022-09-09T07:49:07;98710.88;;;16.65;96.48
9899;BME280;4988;49.238;6.698;2022-09-09T07:51:36;98715.53;;;16.75;96.90
9899;BME280;4988;49.238;6.698;2022-09-09T07:54:07;98711.59;;;16.67;96.11
9899;BME280;4988;49.238;6.698;2022-09-09T07:56:34;98712.34;;;16.69;96.97
9899;BME280;4988;49.238;6.698;2022-09-09T07:59:00;98715.19;;;16.79;96.88
9899;BME280;4988;49.238;6.698;2022-09-09T08:01:37;98716.94;;;16.92;95.08
9899;BME280;4988;49.238;6.698;2022-09-09T08:04:13;98722.91;;;16.95;94.65
9899;BME280;4988;49.238;6.698;2022-09-09T08:06:42;98722.91;;;16.95;94.78
9899;BME280;4988;49.238;6.698;2022-09-09T08:09:08;98715.97;;;16.93;94.11
9899;BME280;4988;49.238;6.698;2022-09-09T08:11:34;98719.25;;;16.96;94.02
9899;BME280;4988;49.238;6.698;2022-09-09T08:14:02;98716.78;;;16.93;92.91
9899;BME280;4988;49.238;6.698;2022-09-09T08:16:36;98709.97;;;17.00;92.36
9899;BME280;4988;49.238;6.698;2022-09-09T08:19:02;98717.06;;;17.01;92.05
9899;BME280;4988;49.238;6.698;2022-09-09T08:21:30;98710.31;;;17.07;91.58
9899;BME280;4988;49.238;6.698;2022-09-09T08:23:57;98703.59;;;17.01;90.61
9899;BME280;4988;49.238;6.698;2022-09-09T08:26:34;98715.56;;;16.97;89.72
9899;BME280;4988;49.238;6.698;2022-09-09T08:29:02;98713.75;;;17.09;91.22
9899;BME280;4988;49.238;6.698;2022-09-09T08:31:36;98706.75;;;17.18;89.81
9899;BME280;4988;49.238;6.698;2022-09-09T08:34:03;98717.78;;;17.26;89.83
9899;BME280;4988;49.238;6.698;2022-09-09T08:36:30;98721.19;;;17.28;88.80
9899;BME280;4988;49.238;6.698;2022-09-09T08:38:57;98716.16;;;17.35;88.50
9899;BME280;4988;49.238;6.698;2022-09-09T09:01:26;98716.41;;;17.98;84.35
9899;BME280;4988;49.238;6.698;2022-09-09T09:09:01;98721.03;;;18.50;80.92
9899;BME280;4988;49.238;6.698;2022-09-09T09:11:37;98705.00;;;18.48;79.17
9899;BME280;4988;49.238;6.698;2022-09-09T09:19:01;98705.66;;;18.20;79.74
9899;BME280;4988;49.238;6.698;2022-09-09T09:21:35;98705.75;;;18.18;80.46
9899;BME280;4988;49.238;6.698;2022-09-09T09:24:05;98703.25;;;18.05;78.98
9899;BME280;4988;49.238;6.698;2022-09-09T09:26:34;98694.97;;;18.18;78.45
9899;BME280;4988;49.238;6.698;2022-09-09T09:29:09;98693.94;;;18.30;78.46
9899;BME280;4988;49.238;6.698;2022-09-09T09:31:35;98694.94;;;18.51;78.38
9899;BME280;4988;49.238;6.698;2022-09-09T09:34:00;98698.88;;;18.68;77.82
9899;BME280;4988;49.238;6.698;2022-09-09T09:36:54;98679.22;;;18.87;77.86
9899;BME280;4988;49.238;6.698;2022-09-09T09:39:31;98691.56;;;19.10;77.18
9899;BME280;4988;49.238;6.698;2022-09-09T09:42:13;98685.72;;;19.05;75.30
9899;BME280;4988;49.238;6.698;2022-09-09T09:44:41;98686.31;;;19.09;75.33
9899;BME280;4988;49.238;6.698;2022-09-09T09:47:14;98678.25;;;19.19;74.86
9899;BME280;4988;49.238;6.698;2022-09-09T09:49:59;98678.13;;;19.30;74.27
9899;BME280;4988;49.238;6.698;2022-09-09T09:52:26;98675.22;;;19.63;73.25
9899;BME280;4988;49.238;6.698;2022-09-09T09:54:54;98678.34;;;19.58;72.89
9899;BME280;4988;49.238;6.698;2022-09-09T09:57:28;98673.16;;;19.86;71.39
9899;BME280;4988;49.238;6.698;2022-09-09T10:00:04;98674.25;;;19.73;71.14
9899;BME280;4988;49.238;6.698;2022-09-09T10:02:41;98682.34;;;19.73;72.07
9899;BME280;4988;49.238;6.698;2022-09-09T10:05:18;98667.75;;;19.96;71.38
9899;BME280;4988;49.238;6.698;2022-09-09T10:07:45;98682.59;;;19.70;71.25
9899;BME280;4988;49.238;6.698;2022-09-09T10:10:15;98683.44;;;19.51;70.51
9899;BME280;4988;49.238;6.698;2022-09-09T10:13:25;98688.06;;;19.29;71.45
9899;BME280;4988;49.238;6.698;2022-09-09T10:16:03;98689.28;;;19.06;71.02
9899;BME280;4988;49.238;6.698;2022-09-09T10:18:44;98684.84;;;18.74;71.99
9899;BME280;4988;49.238;6.698;2022-09-09T10:35:24;98677.94;;;19.12;73.04
9899;BME280;4988;49.238;6.698;2022-09-09T10:38:13;98677.16;;;19.41;71.85
9899;BME280;4988;49.238;6.698;2022-09-09T10:43:39;98664.38;;;19.43;68.74
9899;BME280;4988;49.238;6.698;2022-09-09T10:56:54;98668.53;;;19.67;67.64
9899;BME280;4988;49.238;6.698;2022-09-09T10:59:25;98668.13;;;19.81;67.18
9899;BME280;4988;49.238;6.698;2022-09-09T11:01:56;98671.53;;;19.73;67.83
9899;BME280;4988;49.238;6.698;2022-09-09T11:04:32;98656.75;;;19.68;66.48
9899;BME280;4988;49.238;6.698;2022-09-09T11:07:02;98666.13;;;19.54;66.64
9899;BME280;4988;49.238;6.698;2022-09-09T11:09:37;98668.63;;;19.36;66.88
9899;BME280;4988;49.238;6.698;2022-09-09T11:12:05;98666.38;;;19.51;68.16
9899;BME280;4988;49.238;6.698;2022-09-09T11:14:45;98664.53;;;19.61;66.65
9899;BME280;4988;49.238;6.698;2022-09-09T11:17:24;98652.91;;;19.60;67.18
9899;BME280;4988;49.238;6.698;2022-09-09T11:19:52;98645.38;;;19.74;68.13
9899;BME280;4988;49.238;6.698;2022-09-09T11:22:28;98649.63;;;19.76;66.65
9899;BME280;4988;49.238;6.698;2022-09-09T11:25:16;98649.06;;;19.83;66.93
9899;BME280;4988;49.238;6.698;2022-09-09T11:33:29;98645.34;;;19.44;67.42
9899;BME280;4988;49.238;6.698;2022-09-09T11:36:28;98644.22;;;19.67;67.52
9899;BME280;4988;49.238;6.698;2022-09-09T11:41:51;98644.81;;;19.80;65.33
9899;BME280;4988;49.238;6.698;2022-09-09T11:44:20;98655.38;;;19.83;65.02
9899;BME280;4988;49.238;6.698;2022-09-09T11:46:50;98663.56;;;19.72;66.38
9899;BME280;4988;49.238;6.698;2022-09-09T11:49:39;98667.84;;;19.84;67.93
9899;BME280;4988;49.238;6.698;2022-09-09T11:52:34;98657.91;;;20.04;68.14
9899;BME280;4988;49.238;6.698;2022-09-09T11:55:12;98657.91;;;20.14;67.82
9899;BME280;4988;49.238;6.698;2022-09-09T11:57:57;98667.09;;;20.41;67.93
9899;BME280;4988;49.238;6.698;2022-09-09T12:00:36;98662.34;;;20.63;68.25
9899;BME280;4988;49.238;6.698;2022-09-09T12:03:04;98651.50;;;20.82;68.60
9899;BME280;4988;49.238;6.698;2022-09-09T12:05:44;98649.19;;;20.40;68.35
9899;BME280;4988;49.238;6.698;2022-09-09T12:08:15;98658.50;;;20.08;74.23
9899;BME280;4988;49.238;6.698;2022-09-09T12:10:53;98667.94;;;19.53;79.55
9899;BME280;4988;49.238;6.698;2022-09-09T12:13:21;98675.31;;;19.01;81.47
9899;BME280;4988;49.238;6.698;2022-09-09T12:15:49;98684.22;;;18.60;85.35
9899;BME280;4988;49.238;6.698;2022-09-09T12:18:26;98699.31;;;18.30;90.24
9899;BME280;4988;49.238;6.698;2022-09-09T12:21:08;98700.47;;;17.63;95.82
9899;BME280;4988;49.238;6.698;2022-09-09T12:23:45;98695.25;;;16.82;99.85
9899;BME280;4988;49.238;6.698;2022-09-09T12:26:27;98699.13;;;16.55;100.00
9899;BME280;4988;49.238;6.698;2022-09-09T12:32:14;98684.94;;;16.42;100.00
9899;BME280;4988;49.238;6.698;2022-09-09T12:34:46;98680.78;;;16.37;100.00
9899;BME280;4988;49.238;6.698;2022-09-09T12:40:03;98683.00;;;16.55;100.00
9899;BME280;4988;49.238;6.698;2022-09-09T12:42:30;98670.94;;;16.61;100.00
9899;BME280;4988;49.238;6.698;2022-09-09T12:44:59;98676.69;;;16.90;100.00
9899;BME280;4988;49.238;6.698;2022-09-09T12:47:37;98676.22;;;17.08;100.00
9899;BME280;4988;49.238;6.698;2022-09-09T12:50:15;98672.28;;;17.23;100.00
9899;BME280;4988;49.238;6.698;2022-09-09T12:52:41;98674.84;;;17.13;100.00
9899;BME280;4988;49.238;6.698;2022-09-09T12:55:17;98673.16;;;17.24;100.00
9899;BME280;4988;49.238;6.698;2022-09-09T12:57:43;98668.38;;;17.27;100.00
9899;BME280;4988;49.238;6.698;2022-09-09T13:00:19;98667.09;;;17.43;100.00
9899;BME280;4988;49.238;6.698;2022-09-09T13:02:55;98668.72;;;17.34;100.00
9899;BME280;4988;49.238;6.698;2022-09-09T13:07:59;98649.41;;;17.61;100.00
9899;BME280;4988;49.238;6.698;2022-09-09T13:10:28;98644.81;;;17.84;100.00
9899;BME280;4988;49.238;6.698;2022-09-09T13:12:55;98639.97;;;17.99;100.00
9899;BME280;4988;49.238;6.698;2022-09-09T13:15:22;98643.41;;;18.23;100.00
9899;BME280;4988;49.238;6.698;2022-09-09T13:17:51;98627.63;;;18.39;95.32
9899;BME280;4988;49.238;6.698;2022-09-09T13:20:19;98636.31;;;18.43;95.16
9899;BME280;4988;49.238;6.698;2022-09-09T13:22:45;98627.34;;;18.42;94.15
9899;BME280;4988;49.238;6.698;2022-09-09T13:27:39;98631.09;;;18.51;96.05
9899;BME280;4988;49.238;6.698;2022-09-09T13:30:24;98631.19;;;18.71;93.47
9899;BME280;4988;49.238;6.698;2022-09-09T13:35:30;98627.69;;;19.21;93.32
9899;BME280;4988;49.238;6.698;2022-09-09T13:37:56;98624.28;;;19.28;86.83
9899;BME280;4988;49.238;6.698;2022-09-09T13:40:23;98628.41;;;19.42;89.46
9899;BME280;4988;49.238;6.698;2022-09-09T13:42:55;98622.78;;;19.55;85.88
9899;BME280;4988;49.238;6.698;2022-09-09T13:45:23;98629.31;;;19.72;86.04
9899;BME280;4988;49.238;6.698;2022-09-09T13:47:52;98632.03;;;19.82;80.03
9899;BME280;4988;49.238;6.698;2022-09-09T13:50:28;98625.22;;;19.88;79.67
9899;BME280;4988;49.238;6.698;2022-09-09T13:52:56;98625.50;;;19.85;80.86
9899;BME280;4988;49.238;6.698;2022-09-09T13:55:25;98613.56;;;19.87;78.90
9899;BME280;4988;49.238;6.698;2022-09-09T13:57:52;98615.97;;;19.90;75.24
9899;BME280;4988;49.238;6.698;2022-09-09T14:00:18;98623.78;;;20.03;74.37
9899;BME280;4988;49.238;6.698;2022-09-09T14:02:43;98616.81;;;20.11;70.48
9899;BME280;4988;49.238;6.698;2022-09-09T14:05:09;98619.91;;;20.25;74.09
9899;BME280;4988;49.238;6.698;2022-09-09T14:07:35;98623.44;;;20.26;70.22
9899;BME280;4988;49.238;6.698;2022-09-09T14:10:00;98632.84;;;20.32;69.55
9899;BME280;4988;49.238;6.698;2022-09-09T14:12:28;98626.88;;;20.18;71.19
9899;BME280;4988;49.238;6.698;2022-09-09T14:14:54;98621.34;;;20.10;71.64
9899;BME280;4988;49.238;6.698;2022-09-09T14:17:19;98619.22;;;20.04;72.14
9899;BME280;4988;49.238;6.698;2022-09-09T14:19:44;98616.66;;;20.12;72.89
9899;BME280;4988;49.238;6.698;2022-09-09T14:22:11;98628.00;;;20.25;73.36
9899;BME280;4988;49.238;6.698;2022-09-09T14:24:36;98624.19;;;20.18;73.20
9899;BME280;4988;49.238;6.698;2022-09-09T14:27:02;98631.56;;;20.16;73.65
9899;BME280;4988;49.238;6.698;2022-09-09T14:29:27;98627.91;;;20.07;73.97
9899;BME280;4988;49.238;6.698;2022-09-09T14:31:52;98625.09;;;19.89;76.29
9899;BME280;4988;49.238;6.698;2022-09-09T14:34:18;98624.03;;;19.81;77.79
9899;BME280;4988;49.238;6.698;2022-09-09T14:36:43;98624.34;;;19.68;78.42
9899;BME280;4988;49.238;6.698;2022-09-09T14:39:11;98610.84;;;19.68;78.51
9899;BME280;4988;49.238;6.698;2022-09-09T14:41:37;98612.69;;;19.48;80.08
9899;BME280;4988;49.238;6.698;2022-09-09T14:44:03;98616.94;;;19.50;80.20
9899;BME280;4988;49.238;6.698;2022-09-09T14:46:29;98613.66;;;19.37;80.17
9899;BME280;4988;49.238;6.698;2022-09-09T14:48:56;98621.31;;;19.22;83.31
9899;BME280;4988;49.238;6.698;2022-09-09T14:51:25;98625.97;;;19.20;85.85
9899;BME280;4988;49.238;6.698;2022-09-09T14:53:57;98639.59;;;18.77;88.66
9899;BME280;4988;49.238;6.698;2022-09-09T14:56:28;98638.47;;;18.49;92.75
9899;BME280;4988;49.238;6.698;2022-09-09T14:58:55;98617.16;;;18.46;91.82
9899;BME280;4988;49.238;6.698;2022-09-09T15:01:22;98618.97;;;18.36;93.12
9899;BME280;4988;49.238;6.698;2022-09-09T15:03:58;98625.34;;;18.35;95.30
9899;BME280;4988;49.238;6.698;2022-09-09T15:06:33;98631.63;;;18.45;98.35
9899;BME280;4988;49.238;6.698;2022-09-09T15:09:10;98661.22;;;18.14;98.59
9899;BME280;4988;49.238;6.698;2022-09-09T15:11:37;98706.25;;;17.35;100.00
9899;BME280;4988;49.238;6.698;2022-09-09T15:14:04;98681.81;;;16.12;94.04
9899;BME280;4988;49.238;6.698;2022-09-09T15:16:30;98671.97;;;15.64;100.00
9899;BME280;4988;49.238;6.698;2022-09-09T15:18:58;98653.16;;;15.16;100.00